sensor_id;sensor_type;location;lat;lon;timestamp;P1;durP1;ratioP1;P2;durP2;ratioP2
43160;SDS011;40968;52.342;5.528;2022-07-23T00:01:21;9.82;;;3.30;;
43160;SDS011;40968;52.342;5.528;2022-07-23T00:03:48;7.35;;;3.10;;
43160;SDS011;40968;52.342;5.528;2022-07-23T00:06:15;8.65;;;3.30;;
43160;SDS011;40968;52.342;5.528;2022-07-23T00:08:42;8.85;;;3.05;;
43160;SDS011;40968;52.342;5.528;2022-07-23T00:11:08;6.72;;;2.92;;
43160;SDS011;40968;52.342;5.528;2022-07-23T00:13:35;10.23;;;3.55;;
43160;SDS011;40968;52.342;5.528;2022-07-23T00:16:02;9.18;;;3.70;;
43160;SDS011;40968;52.342;5.528;2022-07-23T00:18:30;8.85;;;2.50;;
43160;SDS011;40968;52.342;5.528;2022-07-23T00:20:56;6.53;;;2.80;;
43160;SDS011;40968;52.342;5.528;2022-07-23T00:23:23;10.93;;;3.08;;
43160;SDS011;40968;52.342;5.528;2022-07-23T00:25:50;7.70;;;3.00;;
43160;SDS011;40968;52.342;5.528;2022-07-23T00:28:16;8.70;;;3.40;;
43160;SDS011;40968;52.342;5.528;2022-07-23T00:30:44;7.20;;;2.90;;
43160;SDS011;40968;52.342;5.528;2022-07-23T00:33:11;10.65;;;3.53;;
43160;SDS011;40968;52.342;5.528;2022-07-23T00:35:39;8.57;;;2.80;;
43160;SDS011;40968;52.342;5.528;2022-07-23T00:38:07;6.53;;;2.40;;
43160;SDS011;40968;52.342;5.528;2022-07-23T00:40:35;6.57;;;3.03;;
43160;SDS011;40968;52.342;5.528;2022-07-23T00:43:03;10.68;;;2.95;;
43160;SDS011;40968;52.342;5.528;2022-07-23T00:45:30;7.93;;;2.90;;
43160;SDS011;40968;52.342;5.528;2022-07-23T00:47:57;6.80;;;3.17;;
43160;SDS011;40968;52.342;5.528;2022-07-23T00:50:24;7.55;;;3.03;;
43160;SDS011;40968;52.342;5.528;2022-07-23T00:52:53;10.48;;;3.40;;
43160;SDS011;40968;52.342;5.528;2022-07-23T00:55:20;5.95;;;2.40;;
43160;SDS011;40968;52.342;5.528;2022-07-23T00:57:46;9.90;;;3.15;;
43160;SDS011;40968;52.342;5.528;2022-07-23T01:00:14;7.38;;;3.30;;
43160;SDS011;40968;52.342;5.528;2022-07-23T01:02:41;7.68;;;2.15;;
43160;SDS011;40968;52.342;5.528;2022-07-23T01:05:08;6.82;;;2.47;;
43160;SDS011;40968;52.342;5.528;2022-07-23T01:07:35;12.48;;;3.70;;
43160;SDS011;40968;52.342;5.528;2022-07-23T01:10:04;8.20;;;2.75;;
43160;SDS011;40968;52.342;5.528;2022-07-23T01:12:52;6.60;;;1.90;;
43160;SDS011;40968;52.342;5.528;2022-07-23T01:15:19;6.15;;;2.85;;
43160;SDS011;40968;52.342;5.528;2022-07-23T01:17:45;7.70;;;2.75;;
43160;SDS011;40968;52.342;5.528;2022-07-23T01:20:12;5.82;;;2.42;;
43160;SDS011;40968;52.342;5.528;2022-07-23T01:22:40;4.25;;;2.30;;
43160;SDS011;40968;52.342;5.528;2022-07-23T01:25:07;7.38;;;2.55;;
43160;SDS011;40968;52.342;5.528;2022-07-23T01:27:34;8.43;;;3.40;;
43160;SDS011;40968;52.342;5.528;2022-07-23T01:30:00;6.32;;;2.63;;
43160;SDS011;40968;52.342;5.528;2022-07-23T01:32:29;6.35;;;1.90;;
43160;SDS011;40968;52.342;5.528;2022-07-23T01:34:55;7.68;;;2.35;;
43160;SDS011;40968;52.342;5.528;2022-07-23T01:37:22;9.85;;;2.60;;
43160;SDS011;40968;52.342;5.528;2022-07-23T01:39:50;6.53;;;2.25;;
43160;SDS011;40968;52.342;5.528;2022-07-23T01:42:16;8.07;;;2.88;;
43160;SDS011;40968;52.342;5.528;2022-07-23T01:44:43;9.68;;;3.22;;
43160;SDS011;40968;52.342;5.528;2022-07-23T01:47:10;4.68;;;2.33;;
43160;SDS011;40968;52.342;5.528;2022-07-23T01:49:36;7.60;;;2.47;;
43160;SDS011;40968;52.342;5.528;2022-07-23T01:52:03;10.27;;;2.92;;
43160;SDS011;40968;52.342;5.528;2022-07-23T01:57:02;7.15;;;2.78;;
43160;SDS011;40968;52.342;5.528;2022-07-23T01:59:29;7.18;;;2.97;;
43160;SDS011;40968;52.342;5.528;2022-07-23T02:01:56;7.72;;;2.80;;
43160;SDS011;40968;52.342;5.528;2022-07-23T02:04:23;9.85;;;2.83;;
43160;SDS011;40968;52.342;5.528;2022-07-23T02:06:50;10.00;;;2.63;;
43160;SDS011;40968;52.342;5.528;2022-07-23T02:09:18;7.32;;;2.72;;
43160;SDS011;40968;52.342;5.528;2022-07-23T02:11:44;9.60;;;2.80;;
43160;SDS011;40968;52.342;5.528;2022-07-23T02:14:12;7.32;;;2.70;;
43160;SDS011;40968;52.342;5.528;2022-07-23T02:16:39;9.05;;;2.25;;
43160;SDS011;40968;52.342;5.528;2022-07-23T02:19:06;5.95;;;2.03;;
43160;SDS011;40968;52.342;5.528;2022-07-23T02:21:32;8.30;;;2.28;;
43160;SDS011;40968;52.342;5.528;2022-07-23T02:23:59;8.93;;;2.75;;
43160;SDS011;40968;52.342;5.528;2022-07-23T02:26:25;6.40;;;2.88;;
43160;SDS011;40968;52.342;5.528;2022-07-23T02:28:52;5.82;;;2.47;;
43160;SDS011;40968;52.342;5.528;2022-07-23T02:31:20;9.55;;;2.92;;
43160;SDS011;40968;52.342;5.528;2022-07-23T02:33:46;6.88;;;2.90;;
43160;SDS011;40968;52.342;5.528;2022-07-23T02:36:13;10.98;;;2.85;;
43160;SDS011;40968;52.342;5.528;2022-07-23T02:38:40;8.27;;;3.10;;
43160;SDS011;40968;52.342;5.528;2022-07-23T02:41:06;10.43;;;3.38;;
43160;SDS011;40968;52.342;5.528;2022-07-23T02:43:33;11.57;;;4.03;;
43160;SDS011;40968;52.342;5.528;2022-07-23T02:45:59;8.98;;;3.00;;
43160;SDS011;40968;52.342;5.528;2022-07-23T02:48:27;6.57;;;2.47;;
43160;SDS011;40968;52.342;5.528;2022-07-23T02:50:54;5.72;;;2.60;;
43160;SDS011;40968;52.342;5.528;2022-07-23T02:53:21;8.68;;;3.03;;
43160;SDS011;40968;52.342;5.528;2022-07-23T02:55:48;6.93;;;2.67;;
43160;SDS011;40968;52.342;5.528;2022-07-23T02:58:16;6.15;;;2.50;;
43160;SDS011;40968;52.342;5.528;2022-07-23T03:00:42;6.22;;;3.00;;
43160;SDS011;40968;52.342;5.528;2022-07-23T03:03:09;9.25;;;3.25;;
43160;SDS011;40968;52.342;5.528;2022-07-23T03:05:37;5.45;;;2.92;;
43160;SDS011;40968;52.342;5.528;2022-07-23T03:08:04;5.57;;;2.55;;
43160;SDS011;40968;52.342;5.528;2022-07-23T03:10:31;8.90;;;2.35;;
43160;SDS011;40968;52.342;5.528;2022-07-23T03:12:57;6.72;;;2.80;;
43160;SDS011;40968;52.342;5.528;2022-07-23T03:15:24;5.47;;;2.38;;
43160;SDS011;40968;52.342;5.528;2022-07-23T03:17:50;7.50;;;2.85;;
43160;SDS011;40968;52.342;5.528;2022-07-23T03:20:17;5.88;;;2.03;;
43160;SDS011;40968;52.342;5.528;2022-07-23T03:22:45;6.60;;;2.50;;
43160;SDS011;40968;52.342;5.528;2022-07-23T03:25:11;8.43;;;2.83;;
43160;SDS011;40968;52.342;5.528;2022-07-23T03:27:38;5.57;;;2.33;;
43160;SDS011;40968;52.342;5.528;2022-07-23T03:30:05;6.65;;;2.90;;
43160;SDS011;40968;52.342;5.528;2022-07-23T03:32:32;8.32;;;2.42;;
43160;SDS011;40968;52.342;5.528;2022-07-23T03:34:59;8.95;;;3.58;;
43160;SDS011;40968;52.342;5.528;2022-07-23T03:37:25;5.28;;;2.40;;
43160;SDS011;40968;52.342;5.528;2022-07-23T03:39:53;8.75;;;3.30;;
43160;SDS011;40968;52.342;5.528;2022-07-23T03:42:19;8.63;;;3.38;;
43160;SDS011;40968;52.342;5.528;2022-07-23T03:44:46;10.98;;;3.17;;
43160;SDS011;40968;52.342;5.528;2022-07-23T03:47:13;6.30;;;2.45;;
43160;SDS011;40968;52.342;5.528;2022-07-23T03:49:39;8.23;;;3.15;;
43160;SDS011;40968;52.342;5.528;2022-07-23T03:52:06;10.60;;;3.45;;
43160;SDS011;40968;52.342;5.528;2022-07-23T03:54:32;12.55;;;3.95;;
43160;SDS011;40968;52.342;5.528;2022-07-23T03:57:00;10.27;;;3.60;;
43160;SDS011;40968;52.342;5.528;2022-07-23T03:59:26;8.43;;;3.20;;
43160;SDS011;40968;52.342;5.528;2022-07-23T04:01:53;8.45;;;3.80;;
43160;SDS011;40968;52.342;5.528;2022-07-23T04:04:20;7.35;;;3.63;;
43160;SDS011;40968;52.342;5.528;2022-07-23T04:06:46;13.13;;;3.90;;
43160;SDS011;40968;52.342;5.528;2022-07-23T04:09:13;10.23;;;3.78;;
43160;SDS011;40968;52.342;5.528;2022-07-23T04:11:39;10.75;;;2.95;;
43160;SDS011;40968;52.342;5.528;2022-07-23T04:14:07;9.23;;;4.13;;
43160;SDS011;40968;52.342;5.528;2022-07-23T04:16:34;10.15;;;3.85;;
43160;SDS011;40968;52.342;5.528;2022-07-23T04:19:00;9.98;;;3.25;;
43160;SDS011;40968;52.342;5.528;2022-07-23T04:21:29;14.57;;;4.00;;
43160;SDS011;40968;52.342;5.528;2022-07-23T04:23:56;10.10;;;4.15;;
43160;SDS011;40968;52.342;5.528;2022-07-23T04:26:22;8.35;;;3.63;;
43160;SDS011;40968;52.342;5.528;2022-07-23T04:28:48;16.75;;;4.70;;
43160;SDS011;40968;52.342;5.528;2022-07-23T04:31:16;13.48;;;3.78;;
43160;SDS011;40968;52.342;5.528;2022-07-23T04:33:43;12.65;;;4.10;;
43160;SDS011;40968;52.342;5.528;2022-07-23T04:36:09;12.50;;;4.45;;
43160;SDS011;40968;52.342;5.528;2022-07-23T04:38:36;12.85;;;3.92;;
43160;SDS011;40968;52.342;5.528;2022-07-23T04:41:02;9.68;;;4.07;;
43160;SDS011;40968;52.342;5.528;2022-07-23T04:43:29;10.00;;;3.65;;
43160;SDS011;40968;52.342;5.528;2022-07-23T04:45:56;10.88;;;4.05;;
43160;SDS011;40968;52.342;5.528;2022-07-23T04:48:24;10.27;;;3.22;;
43160;SDS011;40968;52.342;5.528;2022-07-23T04:50:50;9.60;;;3.65;;
43160;SDS011;40968;52.342;5.528;2022-07-23T04:53:17;10.73;;;3.55;;
43160;SDS011;40968;52.342;5.528;2022-07-23T04:55:44;8.20;;;2.65;;
43160;SDS011;40968;52.342;5.528;2022-07-23T04:58:11;8.13;;;3.25;;
43160;SDS011;40968;52.342;5.528;2022-07-23T05:00:38;9.23;;;3.55;;
43160;SDS011;40968;52.342;5.528;2022-07-23T05:03:04;12.05;;;3.72;;
43160;SDS011;40968;52.342;5.528;2022-07-23T05:05:32;11.02;;;3.38;;
43160;SDS011;40968;52.342;5.528;2022-07-23T05:07:59;7.72;;;3.08;;
43160;SDS011;40968;52.342;5.528;2022-07-23T05:10:25;10.10;;;3.30;;
43160;SDS011;40968;52.342;5.528;2022-07-23T05:12:52;12.10;;;3.47;;
43160;SDS011;40968;52.342;5.528;2022-07-23T05:15:18;11.20;;;3.60;;
43160;SDS011;40968;52.342;5.528;2022-07-23T05:17:45;10.15;;;4.78;;
43160;SDS011;40968;52.342;5.528;2022-07-23T05:20:11;11.68;;;3.92;;
43160;SDS011;40968;52.342;5.528;2022-07-23T05:22:39;10.15;;;3.40;;
43160;SDS011;40968;52.342;5.528;2022-07-23T05:25:06;9.70;;;3.60;;
43160;SDS011;40968;52.342;5.528;2022-07-23T05:27:34;11.18;;;3.53;;
43160;SDS011;40968;52.342;5.528;2022-07-23T05:30:00;8.13;;;3.08;;
43160;SDS011;40968;52.342;5.528;2022-07-23T05:32:27;18.48;;;4.43;;
43160;SDS011;40968;52.342;5.528;2022-07-23T05:34:53;9.43;;;2.75;;
43160;SDS011;40968;52.342;5.528;2022-07-23T05:37:20;11.20;;;3.28;;
43160;SDS011;40968;52.342;5.528;2022-07-23T05:39:48;10.38;;;3.00;;
43160;SDS011;40968;52.342;5.528;2022-07-23T05:42:14;12.77;;;3.50;;
43160;SDS011;40968;52.342;5.528;2022-07-23T05:44:41;9.57;;;3.10;;
43160;SDS011;40968;52.342;5.528;2022-07-23T05:47:07;9.52;;;3.45;;
43160;SDS011;40968;52.342;5.528;2022-07-23T05:49:36;11.00;;;3.25;;
43160;SDS011;40968;52.342;5.528;2022-07-23T05:52:03;6.03;;;2.70;;
43160;SDS011;40968;52.342;5.528;2022-07-23T05:54:30;13.55;;;3.85;;
43160;SDS011;40968;52.342;5.528;2022-07-23T05:56:58;4.95;;;2.25;;
43160;SDS011;40968;52.342;5.528;2022-07-23T05:59:25;10.20;;;3.00;;
43160;SDS011;40968;52.342;5.528;2022-07-23T06:01:51;5.32;;;2.47;;
43160;SDS011;40968;52.342;5.528;2022-07-23T06:04:18;8.98;;;2.85;;
43160;SDS011;40968;52.342;5.528;2022-07-23T06:06:44;10.10;;;3.45;;
43160;SDS011;40968;52.342;5.528;2022-07-23T06:09:11;7.03;;;3.22;;
43160;SDS011;40968;52.342;5.528;2022-07-23T06:11:38;9.82;;;2.85;;
43160;SDS011;40968;52.342;5.528;2022-07-23T06:14:06;7.57;;;2.83;;
43160;SDS011;40968;52.342;5.528;2022-07-23T06:16:33;6.70;;;2.63;;
43160;SDS011;40968;52.342;5.528;2022-07-23T06:18:59;8.57;;;2.55;;
43160;SDS011;40968;52.342;5.528;2022-07-23T06:21:26;6.57;;;2.20;;
43160;SDS011;40968;52.342;5.528;2022-07-23T06:23:52;7.80;;;2.33;;
43160;SDS011;40968;52.342;5.528;2022-07-23T06:26:19;6.85;;;2.33;;
43160;SDS011;40968;52.342;5.528;2022-07-23T06:28:45;7.55;;;2.97;;
43160;SDS011;40968;52.342;5.528;2022-07-23T06:31:13;5.90;;;1.95;;
43160;SDS011;40968;52.342;5.528;2022-07-23T06:33:40;4.88;;;1.95;;
43160;SDS011;40968;52.342;5.528;2022-07-23T06:36:06;6.00;;;2.53;;
43160;SDS011;40968;52.342;5.528;2022-07-23T06:38:33;8.48;;;2.40;;
43160;SDS011;40968;52.342;5.528;2022-07-23T06:41:00;5.05;;;1.58;;
43160;SDS011;40968;52.342;5.528;2022-07-23T06:43:26;5.85;;;2.15;;
43160;SDS011;40968;52.342;5.528;2022-07-23T06:45:53;6.78;;;2.17;;
43160;SDS011;40968;52.342;5.528;2022-07-23T06:48:21;6.40;;;2.22;;
43160;SDS011;40968;52.342;5.528;2022-07-23T06:50:47;6.28;;;2.53;;
43160;SDS011;40968;52.342;5.528;2022-07-23T06:53:14;7.03;;;1.80;;
43160;SDS011;40968;52.342;5.528;2022-07-23T06:55:40;8.13;;;1.95;;
43160;SDS011;40968;52.342;5.528;2022-07-23T06:58:07;3.72;;;1.75;;
43160;SDS011;40968;52.342;5.528;2022-07-23T07:00:35;4.70;;;2.10;;
43160;SDS011;40968;52.342;5.528;2022-07-23T07:03:01;8.48;;;2.08;;
43160;SDS011;40968;52.342;5.528;2022-07-23T07:05:29;5.00;;;2.08;;
43160;SDS011;40968;52.342;5.528;2022-07-23T07:07:56;5.72;;;1.90;;
43160;SDS011;40968;52.342;5.528;2022-07-23T07:10:22;5.88;;;2.10;;
43160;SDS011;40968;52.342;5.528;2022-07-23T07:12:49;3.70;;;1.60;;
43160;SDS011;40968;52.342;5.528;2022-07-23T07:15:15;4.53;;;2.30;;
43160;SDS011;40968;52.342;5.528;2022-07-23T07:17:42;9.93;;;2.00;;
43160;SDS011;40968;52.342;5.528;2022-07-23T07:20:09;8.93;;;2.10;;
43160;SDS011;40968;52.342;5.528;2022-07-23T07:22:37;7.82;;;2.25;;
43160;SDS011;40968;52.342;5.528;2022-07-23T07:25:04;6.10;;;2.33;;
43160;SDS011;40968;52.342;5.528;2022-07-23T07:27:31;5.78;;;2.08;;
43160;SDS011;40968;52.342;5.528;2022-07-23T07:29:58;6.43;;;2.05;;
43160;SDS011;40968;52.342;5.528;2022-07-23T07:32:25;4.97;;;2.10;;
43160;SDS011;40968;52.342;5.528;2022-07-23T07:34:51;10.15;;;2.03;;
43160;SDS011;40968;52.342;5.528;2022-07-23T07:37:18;5.55;;;2.10;;
43160;SDS011;40968;52.342;5.528;2022-07-23T07:39:46;10.13;;;2.25;;
43160;SDS011;40968;52.342;5.528;2022-07-23T07:42:12;9.43;;;1.90;;
43160;SDS011;40968;52.342;5.528;2022-07-23T07:44:39;3.17;;;1.50;;
43160;SDS011;40968;52.342;5.528;2022-07-23T07:47:05;4.85;;;1.67;;
43160;SDS011;40968;52.342;5.528;2022-07-23T07:49:32;6.32;;;2.00;;
43160;SDS011;40968;52.342;5.528;2022-07-23T07:51:59;8.57;;;1.70;;
43160;SDS011;40968;52.342;5.528;2022-07-23T07:54:26;6.00;;;1.65;;
43160;SDS011;40968;52.342;5.528;2022-07-23T07:56:54;5.40;;;1.83;;
43160;SDS011;40968;52.342;5.528;2022-07-23T07:59:20;6.55;;;1.90;;
43160;SDS011;40968;52.342;5.528;2022-07-23T08:01:47;3.53;;;1.50;;
43160;SDS011;40968;52.342;5.528;2022-07-23T08:04:13;6.20;;;1.77;;
43160;SDS011;40968;52.342;5.528;2022-07-23T08:06:40;4.65;;;1.60;;
43160;SDS011;40968;52.342;5.528;2022-07-23T08:09:07;6.05;;;1.45;;
43160;SDS011;40968;52.342;5.528;2022-07-23T08:11:33;6.13;;;1.67;;
43160;SDS011;40968;52.342;5.528;2022-07-23T08:14:01;2.95;;;1.17;;
43160;SDS011;40968;52.342;5.528;2022-07-23T08:16:28;7.07;;;1.80;;
43160;SDS011;40968;52.342;5.528;2022-07-23T08:18:55;3.15;;;1.50;;
43160;SDS011;40968;52.342;5.528;2022-07-23T08:21:22;5.18;;;1.25;;
43160;SDS011;40968;52.342;5.528;2022-07-23T08:23:48;3.10;;;1.50;;
43160;SDS011;40968;52.342;5.528;2022-07-23T08:26:15;3.30;;;1.58;;
43160;SDS011;40968;52.342;5.528;2022-07-23T08:28:41;5.75;;;1.67;;
43160;SDS011;40968;52.342;5.528;2022-07-23T08:31:09;2.25;;;1.25;;
43160;SDS011;40968;52.342;5.528;2022-07-23T08:33:36;3.08;;;1.50;;
43160;SDS011;40968;52.342;5.528;2022-07-23T08:36:03;6.95;;;1.58;;
43160;SDS011;40968;52.342;5.528;2022-07-23T08:38:30;7.45;;;1.65;;
43160;SDS011;40968;52.342;5.528;2022-07-23T08:40:57;2.83;;;1.42;;
43160;SDS011;40968;52.342;5.528;2022-07-23T08:43:24;2.97;;;1.35;;
43160;SDS011;40968;52.342;5.528;2022-07-23T08:45:54;5.63;;;1.90;;
43160;SDS011;40968;52.342;5.528;2022-07-23T08:48:23;2.35;;;1.30;;
43160;SDS011;40968;52.342;5.528;2022-07-23T08:50:52;18.55;;;2.40;;
43160;SDS011;40968;52.342;5.528;2022-07-23T08:53:21;3.25;;;1.30;;
43160;SDS011;40968;52.342;5.528;2022-07-23T08:55:50;4.32;;;1.58;;
43160;SDS011;40968;52.342;5.528;2022-07-23T08:58:17;2.90;;;1.40;;
43160;SDS011;40968;52.342;5.528;2022-07-23T09:00:45;3.60;;;1.48;;
43160;SDS011;40968;52.342;5.528;2022-07-23T09:03:14;4.13;;;1.48;;
43160;SDS011;40968;52.342;5.528;2022-07-23T09:05:44;2.13;;;1.35;;
43160;SDS011;40968;52.342;5.528;2022-07-23T09:08:12;4.60;;;1.67;;
43160;SDS011;40968;52.342;5.528;2022-07-23T09:10:43;5.30;;;1.75;;
43160;SDS011;40968;52.342;5.528;2022-07-23T09:13:28;5.53;;;2.20;;
43160;SDS011;40968;52.342;5.528;2022-07-23T09:15:57;7.03;;;1.85;;
43160;SDS011;40968;52.342;5.528;2022-07-23T09:18:35;3.60;;;1.80;;
43160;SDS011;40968;52.342;5.528;2022-07-23T09:21:15;3.45;;;1.48;;
43160;SDS011;40968;52.342;5.528;2022-07-23T09:23:45;9.25;;;1.63;;
43160;SDS011;40968;52.342;5.528;2022-07-23T09:26:17;7.55;;;1.77;;
43160;SDS011;40968;52.342;5.528;2022-07-23T09:28:57;3.38;;;1.30;;
43160;SDS011;40968;52.342;5.528;2022-07-23T09:31:34;3.72;;;1.77;;
43160;SDS011;40968;52.342;5.528;2022-07-23T09:34:09;3.67;;;1.40;;
43160;SDS011;40968;52.342;5.528;2022-07-23T09:36:39;3.10;;;1.70;;
43160;SDS011;40968;52.342;5.528;2022-07-23T09:39:06;3.58;;;1.63;;
43160;SDS011;40968;52.342;5.528;2022-07-23T09:41:34;5.10;;;2.13;;
43160;SDS011;40968;52.342;5.528;2022-07-23T09:44:10;6.65;;;1.25;;
43160;SDS011;40968;52.342;5.528;2022-07-23T09:46:41;6.10;;;1.70;;
43160;SDS011;40968;52.342;5.528;2022-07-23T09:51:56;4.55;;;1.95;;
43160;SDS011;40968;52.342;5.528;2022-07-23T09:54:31;4.68;;;1.80;;
43160;SDS011;40968;52.342;5.528;2022-07-23T09:57:00;4.20;;;1.75;;
43160;SDS011;40968;52.342;5.528;2022-07-23T09:59:31;5.88;;;1.95;;
43160;SDS011;40968;52.342;5.528;2022-07-23T10:02:00;4.75;;;1.63;;
43160;SDS011;40968;52.342;5.528;2022-07-23T10:04:28;10.38;;;2.35;;
43160;SDS011;40968;52.342;5.528;2022-07-23T10:06:58;2.80;;;1.48;;
43160;SDS011;40968;52.342;5.528;2022-07-23T10:09:26;5.25;;;1.52;;
43160;SDS011;40968;52.342;5.528;2022-07-23T10:11:55;5.43;;;1.48;;
43160;SDS011;40968;52.342;5.528;2022-07-23T10:14:42;4.13;;;1.77;;
43160;SDS011;40968;52.342;5.528;2022-07-23T10:17:09;8.05;;;2.10;;
43160;SDS011;40968;52.342;5.528;2022-07-23T10:19:36;6.32;;;1.30;;
43160;SDS011;40968;52.342;5.528;2022-07-23T10:22:06;2.22;;;1.13;;
43160;SDS011;40968;52.342;5.528;2022-07-23T10:24:46;6.22;;;1.88;;
43160;SDS011;40968;52.342;5.528;2022-07-23T10:27:43;8.05;;;1.30;;
43160;SDS011;40968;52.342;5.528;2022-07-23T10:30:18;4.53;;;1.27;;
43160;SDS011;40968;52.342;5.528;2022-07-23T10:32:54;4.57;;;1.45;;
43160;SDS011;40968;52.342;5.528;2022-07-23T10:35:36;3.03;;;1.38;;
43160;SDS011;40968;52.342;5.528;2022-07-23T10:38:13;2.65;;;1.50;;
43160;SDS011;40968;52.342;5.528;2022-07-23T10:40:54;7.20;;;1.48;;
43160;SDS011;40968;52.342;5.528;2022-07-23T10:43:22;4.53;;;1.38;;
43160;SDS011;40968;52.342;5.528;2022-07-23T10:45:48;2.20;;;1.30;;
43160;SDS011;40968;52.342;5.528;2022-07-23T10:48:16;3.22;;;1.42;;
43160;SDS011;40968;52.342;5.528;2022-07-23T10:50:44;4.57;;;1.45;;
43160;SDS011;40968;52.342;5.528;2022-07-23T10:59:31;2.78;;;1.30;;
43160;SDS011;40968;52.342;5.528;2022-07-23T11:07:16;5.43;;;1.30;;
43160;SDS011;40968;52.342;5.528;2022-07-23T11:09:44;8.43;;;1.58;;
43160;SDS011;40968;52.342;5.528;2022-07-23T11:12:31;4.18;;;1.70;;
43160;SDS011;40968;52.342;5.528;2022-07-23T11:15:02;5.03;;;1.52;;
43160;SDS011;40968;52.342;5.528;2022-07-23T11:17:35;2.80;;;1.38;;
43160;SDS011;40968;52.342;5.528;2022-07-23T11:22:56;4.65;;;1.42;;
43160;SDS011;40968;52.342;5.528;2022-07-23T11:25:33;2.95;;;1.20;;
43160;SDS011;40968;52.342;5.528;2022-07-23T11:28:08;2.75;;;1.20;;
43160;SDS011;40968;52.342;5.528;2022-07-23T11:30:37;4.38;;;1.23;;
43160;SDS011;40968;52.342;5.528;2022-07-23T11:33:16;2.92;;;1.70;;
43160;SDS011;40968;52.342;5.528;2022-07-23T11:35:44;4.55;;;1.45;;
43160;SDS011;40968;52.342;5.528;2022-07-23T11:38:14;3.03;;;1.25;;
43160;SDS011;40968;52.342;5.528;2022-07-23T11:40:44;3.30;;;1.27;;
43160;SDS011;40968;52.342;5.528;2022-07-23T11:43:13;4.10;;;1.30;;
43160;SDS011;40968;52.342;5.528;2022-07-23T11:45:41;2.60;;;1.10;;
43160;SDS011;40968;52.342;5.528;2022-07-23T11:48:15;3.38;;;1.48;;
43160;SDS011;40968;52.342;5.528;2022-07-23T11:50:43;2.20;;;1.20;;
43160;SDS011;40968;52.342;5.528;2022-07-23T11:53:10;4.43;;;1.40;;
43160;SDS011;40968;52.342;5.528;2022-07-23T11:55:36;2.67;;;1.45;;
43160;SDS011;40968;52.342;5.528;2022-07-23T11:58:05;3.35;;;1.30;;
43160;SDS011;40968;52.342;5.528;2022-07-23T12:00:31;5.03;;;1.20;;
43160;SDS011;40968;52.342;5.528;2022-07-23T12:03:00;5.90;;;1.88;;
43160;SDS011;40968;52.342;5.528;2022-07-23T12:05:28;7.38;;;1.50;;
43160;SDS011;40968;52.342;5.528;2022-07-23T12:07:56;10.60;;;1.85;;
43160;SDS011;40968;52.342;5.528;2022-07-23T12:10:24;4.45;;;1.23;;
43160;SDS011;40968;52.342;5.528;2022-07-23T12:12:52;3.65;;;1.40;;
43160;SDS011;40968;52.342;5.528;2022-07-23T12:15:22;3.60;;;1.20;;
43160;SDS011;40968;52.342;5.528;2022-07-23T12:17:51;2.20;;;1.20;;
43160;SDS011;40968;52.342;5.528;2022-07-23T12:20:20;6.97;;;1.42;;
43160;SDS011;40968;52.342;5.528;2022-07-23T12:22:48;3.67;;;1.48;;
43160;SDS011;40968;52.342;5.528;2022-07-23T12:25:17;3.10;;;1.42;;
43160;SDS011;40968;52.342;5.528;2022-07-23T12:27:45;4.25;;;1.35;;
43160;SDS011;40968;52.342;5.528;2022-07-23T12:30:16;4.13;;;1.15;;
43160;SDS011;40968;52.342;5.528;2022-07-23T12:32:48;2.17;;;1.20;;
43160;SDS011;40968;52.342;5.528;2022-07-23T12:35:16;9.93;;;1.40;;
43160;SDS011;40968;52.342;5.528;2022-07-23T12:37:43;2.60;;;1.30;;
43160;SDS011;40968;52.342;5.528;2022-07-23T12:40:24;4.07;;;1.23;;
43160;SDS011;40968;52.342;5.528;2022-07-23T12:45:20;4.18;;;1.50;;
43160;SDS011;40968;52.342;5.528;2022-07-23T12:47:51;2.40;;;1.40;;
43160;SDS011;40968;52.342;5.528;2022-07-23T12:50:32;8.45;;;1.60;;
43160;SDS011;40968;52.342;5.528;2022-07-23T12:53:14;2.45;;;1.35;;
43160;SDS011;40968;52.342;5.528;2022-07-23T12:55:42;7.10;;;1.48;;
43160;SDS011;40968;52.342;5.528;2022-07-23T12:58:11;5.22;;;1.58;;
43160;SDS011;40968;52.342;5.528;2022-07-23T13:03:37;3.67;;;1.45;;
43160;SDS011;40968;52.342;5.528;2022-07-23T13:06:06;3.78;;;1.40;;
43160;SDS011;40968;52.342;5.528;2022-07-23T13:08:35;3.33;;;1.40;;
43160;SDS011;40968;52.342;5.528;2022-07-23T13:11:03;3.03;;;1.58;;
43160;SDS011;40968;52.342;5.528;2022-07-23T13:13:32;3.53;;;1.65;;
43160;SDS011;40968;52.342;5.528;2022-07-23T13:16:00;2.53;;;1.50;;
43160;SDS011;40968;52.342;5.528;2022-07-23T13:18:27;4.40;;;1.88;;
43160;SDS011;40968;52.342;5.528;2022-07-23T13:20:55;3.25;;;1.42;;
43160;SDS011;40968;52.342;5.528;2022-07-23T13:23:22;5.53;;;1.65;;
43160;SDS011;40968;52.342;5.528;2022-07-23T13:25:49;2.97;;;1.42;;
43160;SDS011;40968;52.342;5.528;2022-07-23T13:28:17;2.58;;;1.50;;
43160;SDS011;40968;52.342;5.528;2022-07-23T13:30:44;5.68;;;1.83;;
43160;SDS011;40968;52.342;5.528;2022-07-23T13:33:14;5.43;;;1.50;;
43160;SDS011;40968;52.342;5.528;2022-07-23T13:35:41;3.13;;;1.42;;
43160;SDS011;40968;52.342;5.528;2022-07-23T13:38:09;2.80;;;1.60;;
43160;SDS011;40968;52.342;5.528;2022-07-23T13:40:36;2.60;;;1.80;;
43160;SDS011;40968;52.342;5.528;2022-07-23T13:43:04;2.63;;;1.50;;
43160;SDS011;40968;52.342;5.528;2022-07-23T13:45:31;5.70;;;1.70;;
43160;SDS011;40968;52.342;5.528;2022-07-23T13:47:58;2.75;;;1.30;;
43160;SDS011;40968;52.342;5.528;2022-07-23T13:50:25;3.53;;;1.80;;
43160;SDS011;40968;52.342;5.528;2022-07-23T13:52:51;4.65;;;1.60;;
43160;SDS011;40968;52.342;5.528;2022-07-23T13:55:19;5.05;;;1.83;;
43160;SDS011;40968;52.342;5.528;2022-07-23T13:57:46;2.10;;;1.38;;
43160;SDS011;40968;52.342;5.528;2022-07-23T14:00:13;4.30;;;1.70;;
43160;SDS011;40968;52.342;5.528;2022-07-23T14:02:40;5.45;;;1.55;;
43160;SDS011;40968;52.342;5.528;2022-07-23T14:05:08;2.53;;;1.30;;
43160;SDS011;40968;52.342;5.528;2022-07-23T14:07:37;3.30;;;1.88;;
43160;SDS011;40968;52.342;5.528;2022-07-23T14:10:05;4.82;;;1.83;;
43160;SDS011;40968;52.342;5.528;2022-07-23T14:12:34;4.30;;;1.55;;
43160;SDS011;40968;52.342;5.528;2022-07-23T14:15:01;5.15;;;1.90;;
43160;SDS011;40968;52.342;5.528;2022-07-23T14:17:28;4.88;;;1.85;;
43160;SDS011;40968;52.342;5.528;2022-07-23T14:19:55;4.97;;;1.60;;
43160;SDS011;40968;52.342;5.528;2022-07-23T14:22:21;5.28;;;2.00;;
43160;SDS011;40968;52.342;5.528;2022-07-23T14:24:48;7.00;;;1.50;;
43160;SDS011;40968;52.342;5.528;2022-07-23T14:27:15;2.72;;;1.63;;
43160;SDS011;40968;52.342;5.528;2022-07-23T14:29:43;7.13;;;1.73;;
43160;SDS011;40968;52.342;5.528;2022-07-23T14:32:10;3.92;;;1.83;;
43160;SDS011;40968;52.342;5.528;2022-07-23T14:34:36;4.70;;;1.63;;
43160;SDS011;40968;52.342;5.528;2022-07-23T14:37:03;3.03;;;1.85;;
43160;SDS011;40968;52.342;5.528;2022-07-23T14:39:29;4.00;;;1.48;;
43160;SDS011;40968;52.342;5.528;2022-07-23T14:41:56;9.00;;;2.58;;
43160;SDS011;40968;52.342;5.528;2022-07-23T14:44:23;5.18;;;1.73;;
43160;SDS011;40968;52.342;5.528;2022-07-23T14:46:50;6.47;;;2.25;;
43160;SDS011;40968;52.342;5.528;2022-07-23T14:49:17;3.85;;;1.70;;
43160;SDS011;40968;52.342;5.528;2022-07-23T14:51:44;4.88;;;1.42;;
43160;SDS011;40968;52.342;5.528;2022-07-23T14:54:10;6.00;;;2.03;;
43160;SDS011;40968;52.342;5.528;2022-07-23T14:56:38;2.97;;;1.75;;
43160;SDS011;40968;52.342;5.528;2022-07-23T14:59:05;5.25;;;1.92;;
43160;SDS011;40968;52.342;5.528;2022-07-23T15:01:32;4.00;;;1.80;;
43160;SDS011;40968;52.342;5.528;2022-07-23T15:04:01;3.33;;;1.83;;
43160;SDS011;40968;52.342;5.528;2022-07-23T15:06:28;3.25;;;1.60;;
43160;SDS011;40968;52.342;5.528;2022-07-23T15:08:54;4.80;;;1.80;;
43160;SDS011;40968;52.342;5.528;2022-07-23T15:11:21;5.82;;;2.08;;
43160;SDS011;40968;52.342;5.528;2022-07-23T15:13:47;5.68;;;1.60;;
43160;SDS011;40968;52.342;5.528;2022-07-23T15:16:14;6.40;;;1.70;;